sensor_id;sensor_type;location;lat;lon;timestamp;P1;durP1;ratioP1;P2;durP2;ratioP2
14994;SDS011;7593;49.006;8.372;2023-05-14T00:00:53;6.85;;;6.18;;
14994;SDS011;7593;49.006;8.372;2023-05-14T00:03:19;6.55;;;6.05;;
14994;SDS011;7593;49.006;8.372;2023-05-14T00:05:46;7.18;;;6.53;;
14994;SDS011;7593;49.006;8.372;2023-05-14T00:08:13;7.38;;;6.57;;
14994;SDS011;7593;49.006;8.372;2023-05-14T00:10:40;7.32;;;6.47;;
14994;SDS011;7593;49.006;8.372;2023-05-14T00:13:08;7.32;;;6.50;;
14994;SDS011;7593;49.006;8.372;2023-05-14T00:15:35;7.25;;;6.65;;
14994;SDS011;7593;49.006;8.372;2023-05-14T00:18:02;8.70;;;6.82;;
14994;SDS011;7593;49.006;8.372;2023-05-14T00:20:29;7.60;;;6.88;;
14994;SDS011;7593;49.006;8.372;2023-05-14T00:22:56;8.10;;;7.28;;
14994;SDS011;7593;49.006;8.372;2023-05-14T00:25:23;7.68;;;6.90;;
14994;SDS011;7593;49.006;8.372;2023-05-14T00:27:49;9.40;;;8.35;;
14994;SDS011;7593;49.006;8.372;2023-05-14T00:30:17;9.18;;;7.38;;
14994;SDS011;7593;49.006;8.372;2023-05-14T00:32:44;8.50;;;7.60;;
14994;SDS011;7593;49.006;8.372;2023-05-14T00:35:11;8.88;;;7.28;;
14994;SDS011;7593;49.006;8.372;2023-05-14T00:37:37;8.23;;;7.45;;
14994;SDS011;7593;49.006;8.372;2023-05-14T00:40:05;7.88;;;7.18;;
14994;SDS011;7593;49.006;8.372;2023-05-14T00:42:35;10.13;;;7.28;;
14994;SDS011;7593;49.006;8.372;2023-05-14T00:45:02;6.90;;;6.28;;
14994;SDS011;7593;49.006;8.372;2023-05-14T00:47:31;6.78;;;6.18;;
14994;SDS011;7593;49.006;8.372;2023-05-14T00:49:58;6.70;;;6.05;;
14994;SDS011;7593;49.006;8.372;2023-05-14T00:52:25;6.60;;;6.00;;
14994;SDS011;7593;49.006;8.372;2023-05-14T00:54:52;6.68;;;6.07;;
14994;SDS011;7593;49.006;8.372;2023-05-14T00:57:19;15.73;;;14.23;;
14994;SDS011;7593;49.006;8.372;2023-05-14T00:59:46;6.25;;;5.65;;
14994;SDS011;7593;49.006;8.372;2023-05-14T01:02:13;8.77;;;5.50;;
14994;SDS011;7593;49.006;8.372;2023-05-14T01:04:41;6.35;;;5.80;;
14994;SDS011;7593;49.006;8.372;2023-05-14T01:07:09;5.90;;;5.28;;
14994;SDS011;7593;49.006;8.372;2023-05-14T01:09:43;7.00;;;5.82;;
14994;SDS011;7593;49.006;8.372;2023-05-14T01:12:16;6.22;;;5.63;;
14994;SDS011;7593;49.006;8.372;2023-05-14T01:14:51;7.18;;;6.00;;
14994;SDS011;7593;49.006;8.372;2023-05-14T01:17:22;6.60;;;5.90;;
14994;SDS011;7593;49.006;8.372;2023-05-14T01:19:53;6.25;;;5.68;;
14994;SDS011;7593;49.006;8.372;2023-05-14T01:22:23;6.85;;;6.22;;
14994;SDS011;7593;49.006;8.372;2023-05-14T01:24:49;6.68;;;5.93;;
14994;SDS011;7593;49.006;8.372;2023-05-14T01:27:17;7.15;;;5.55;;
14994;SDS011;7593;49.006;8.372;2023-05-14T01:29:51;6.65;;;6.05;;
14994;SDS011;7593;49.006;8.372;2023-05-14T01:32:23;6.15;;;5.55;;
14994;SDS011;7593;49.006;8.372;2023-05-14T01:34:51;6.88;;;6.10;;
14994;SDS011;7593;49.006;8.372;2023-05-14T01:37:18;6.70;;;6.10;;
14994;SDS011;7593;49.006;8.372;2023-05-14T01:39:47;6.80;;;6.10;;
14994;SDS011;7593;49.006;8.372;2023-05-14T01:42:15;6.10;;;5.53;;
14994;SDS011;7593;49.006;8.372;2023-05-14T01:44:42;6.38;;;5.88;;
14994;SDS011;7593;49.006;8.372;2023-05-14T01:47:09;6.43;;;5.88;;
14994;SDS011;7593;49.006;8.372;2023-05-14T01:49:35;6.50;;;5.93;;
14994;SDS011;7593;49.006;8.372;2023-05-14T01:52:02;6.97;;;6.28;;
14994;SDS011;7593;49.006;8.372;2023-05-14T01:54:29;6.85;;;5.95;;
14994;SDS011;7593;49.006;8.372;2023-05-14T01:56:57;6.65;;;6.05;;
14994;SDS011;7593;49.006;8.372;2023-05-14T01:59:24;6.45;;;5.80;;
14994;SDS011;7593;49.006;8.372;2023-05-14T02:01:51;6.82;;;6.30;;
14994;SDS011;7593;49.006;8.372;2023-05-14T02:04:17;7.05;;;6.35;;
14994;SDS011;7593;49.006;8.372;2023-05-14T02:06:44;6.40;;;5.80;;
14994;SDS011;7593;49.006;8.372;2023-05-14T02:09:11;6.57;;;5.93;;
14994;SDS011;7593;49.006;8.372;2023-05-14T02:11:38;6.72;;;6.03;;
14994;SDS011;7593;49.006;8.372;2023-05-14T02:14:06;6.15;;;5.65;;
14994;SDS011;7593;49.006;8.372;2023-05-14T02:16:33;7.22;;;6.53;;
14994;SDS011;7593;49.006;8.372;2023-05-14T02:18:59;6.93;;;6.05;;
14994;SDS011;7593;49.006;8.372;2023-05-14T02:21:26;6.80;;;6.18;;
14994;SDS011;7593;49.006;8.372;2023-05-14T02:23:53;6.60;;;6.00;;
14994;SDS011;7593;49.006;8.372;2023-05-14T02:26:20;6.10;;;5.60;;
14994;SDS011;7593;49.006;8.372;2023-05-14T02:28:46;7.10;;;6.43;;
14994;SDS011;7593;49.006;8.372;2023-05-14T02:31:14;6.82;;;6.22;;
14994;SDS011;7593;49.006;8.372;2023-05-14T02:33:43;7.32;;;5.97;;
14994;SDS011;7593;49.006;8.372;2023-05-14T02:36:10;7.65;;;6.70;;
14994;SDS011;7593;49.006;8.372;2023-05-14T02:38:36;6.85;;;6.22;;
14994;SDS011;7593;49.006;8.372;2023-05-14T02:41:03;6.93;;;6.22;;
14994;SDS011;7593;49.006;8.372;2023-05-14T02:43:30;7.22;;;6.53;;
14994;SDS011;7593;49.006;8.372;2023-05-14T02:45:56;6.55;;;6.00;;
14994;SDS011;7593;49.006;8.372;2023-05-14T02:48:24;6.93;;;6.22;;
14994;SDS011;7593;49.006;8.372;2023-05-14T02:50:51;6.80;;;6.10;;
14994;SDS011;7593;49.006;8.372;2023-05-14T02:53:18;6.75;;;6.15;;
14994;SDS011;7593;49.006;8.372;2023-05-14T02:55:45;7.00;;;6.07;;
14994;SDS011;7593;49.006;8.372;2023-05-14T02:58:11;6.85;;;6.25;;
14994;SDS011;7593;49.006;8.372;2023-05-14T03:00:39;6.22;;;5.68;;
14994;SDS011;7593;49.006;8.372;2023-05-14T03:03:05;6.65;;;5.88;;
14994;SDS011;7593;49.006;8.372;2023-05-14T03:05:33;6.68;;;6.07;;
14994;SDS011;7593;49.006;8.372;2023-05-14T03:08:00;6.30;;;5.70;;
14994;SDS011;7593;49.006;8.372;2023-05-14T03:10:27;7.68;;;6.00;;
14994;SDS011;7593;49.006;8.372;2023-05-14T03:12:54;6.70;;;5.53;;
14994;SDS011;7593;49.006;8.372;2023-05-14T03:15:20;6.18;;;5.63;;
14994;SDS011;7593;49.006;8.372;2023-05-14T03:17:47;5.82;;;5.38;;
14994;SDS011;7593;49.006;8.372;2023-05-14T03:20:14;6.05;;;5.35;;
14994;SDS011;7593;49.006;8.372;2023-05-14T03:22:42;5.80;;;5.30;;
14994;SDS011;7593;49.006;8.372;2023-05-14T03:25:08;5.95;;;5.30;;
14994;SDS011;7593;49.006;8.372;2023-05-14T03:27:35;5.70;;;5.20;;
14994;SDS011;7593;49.006;8.372;2023-05-14T03:30:02;6.05;;;5.50;;
14994;SDS011;7593;49.006;8.372;2023-05-14T03:32:29;6.20;;;5.60;;
14994;SDS011;7593;49.006;8.372;2023-05-14T03:34:56;5.57;;;5.10;;
14994;SDS011;7593;49.006;8.372;2023-05-14T03:37:23;6.32;;;5.72;;
14994;SDS011;7593;49.006;8.372;2023-05-14T03:39:51;7.10;;;6.40;;
14994;SDS011;7593;49.006;8.372;2023-05-14T03:42:18;5.85;;;5.25;;
14994;SDS011;7593;49.006;8.372;2023-05-14T03:44:45;6.07;;;5.57;;
14994;SDS011;7593;49.006;8.372;2023-05-14T03:47:11;7.13;;;5.65;;
14994;SDS011;7593;49.006;8.372;2023-05-14T03:49:38;5.68;;;5.15;;
14994;SDS011;7593;49.006;8.372;2023-05-14T03:52:05;9.13;;;5.80;;
14994;SDS011;7593;49.006;8.372;2023-05-14T03:54:32;6.10;;;5.50;;
14994;SDS011;7593;49.006;8.372;2023-05-14T03:57:00;6.97;;;6.32;;
14994;SDS011;7593;49.006;8.372;2023-05-14T03:59:27;7.20;;;5.60;;
14994;SDS011;7593;49.006;8.372;2023-05-14T04:01:53;7.10;;;6.50;;
14994;SDS011;7593;49.006;8.372;2023-05-14T04:04:20;9.75;;;6.35;;
14994;SDS011;7593;49.006;8.372;2023-05-14T04:06:47;6.00;;;5.50;;
14994;SDS011;7593;49.006;8.372;2023-05-14T04:09:13;8.60;;;5.63;;
14994;SDS011;7593;49.006;8.372;2023-05-14T04:11:40;5.93;;;5.25;;
14994;SDS011;7593;49.006;8.372;2023-05-14T04:14:08;6.80;;;5.95;;
14994;SDS011;7593;49.006;8.372;2023-05-14T04:16:35;6.38;;;5.88;;
14994;SDS011;7593;49.006;8.372;2023-05-14T04:19:02;6.53;;;5.95;;
14994;SDS011;7593;49.006;8.372;2023-05-14T04:21:29;6.57;;;5.97;;
14994;SDS011;7593;49.006;8.372;2023-05-14T04:23:56;6.45;;;5.70;;
14994;SDS011;7593;49.006;8.372;2023-05-14T04:26:23;6.97;;;6.30;;
14994;SDS011;7593;49.006;8.372;2023-05-14T04:28:50;8.02;;;5.97;;
14994;SDS011;7593;49.006;8.372;2023-05-14T04:31:18;6.75;;;6.00;;
14994;SDS011;7593;49.006;8.372;2023-05-14T04:33:45;6.82;;;6.15;;
14994;SDS011;7593;49.006;8.372;2023-05-14T04:36:11;6.78;;;6.07;;
14994;SDS011;7593;49.006;8.372;2023-05-14T04:38:38;5.85;;;5.35;;
14994;SDS011;7593;49.006;8.372;2023-05-14T04:41:05;6.45;;;5.85;;
14994;SDS011;7593;49.006;8.372;2023-05-14T04:43:32;6.40;;;5.80;;
14994;SDS011;7593;49.006;8.372;2023-05-14T04:45:59;6.30;;;5.68;;
14994;SDS011;7593;49.006;8.372;2023-05-14T04:48:27;5.82;;;5.32;;
14994;SDS011;7593;49.006;8.372;2023-05-14T04:50:53;6.05;;;5.45;;
14994;SDS011;7593;49.006;8.372;2023-05-14T04:53:20;5.85;;;5.32;;
14994;SDS011;7593;49.006;8.372;2023-05-14T04:55:47;5.90;;;5.30;;
14994;SDS011;7593;49.006;8.372;2023-05-14T04:58:14;6.43;;;5.72;;
14994;SDS011;7593;49.006;8.372;2023-05-14T05:00:40;6.10;;;5.50;;
14994;SDS011;7593;49.006;8.372;2023-05-14T05:03:07;5.65;;;5.15;;
14994;SDS011;7593;49.006;8.372;2023-05-14T05:05:35;5.80;;;5.20;;
14994;SDS011;7593;49.006;8.372;2023-05-14T05:08:02;5.75;;;5.20;;
14994;SDS011;7593;49.006;8.372;2023-05-14T05:10:29;5.85;;;5.32;;
14994;SDS011;7593;49.006;8.372;2023-05-14T05:12:56;5.60;;;5.10;;
14994;SDS011;7593;49.006;8.372;2023-05-14T05:15:23;5.43;;;4.93;;
14994;SDS011;7593;49.006;8.372;2023-05-14T05:17:50;5.90;;;5.30;;
14994;SDS011;7593;49.006;8.372;2023-05-14T05:20:16;5.25;;;4.85;;
14994;SDS011;7593;49.006;8.372;2023-05-14T05:22:44;6.03;;;5.38;;
14994;SDS011;7593;49.006;8.372;2023-05-14T05:25:11;5.70;;;4.93;;
14994;SDS011;7593;49.006;8.372;2023-05-14T05:27:38;5.80;;;5.30;;
14994;SDS011;7593;49.006;8.372;2023-05-14T05:30:05;6.00;;;5.10;;
14994;SDS011;7593;49.006;8.372;2023-05-14T05:32:32;5.43;;;4.93;;
14994;SDS011;7593;49.006;8.372;2023-05-14T05:35:00;6.15;;;5.55;;
14994;SDS011;7593;49.006;8.372;2023-05-14T05:37:27;5.50;;;5.00;;
14994;SDS011;7593;49.006;8.372;2023-05-14T05:39:56;5.03;;;4.53;;
14994;SDS011;7593;49.006;8.372;2023-05-14T05:42:23;5.78;;;5.07;;
14994;SDS011;7593;49.006;8.372;2023-05-14T05:44:50;5.68;;;5.10;;
14994;SDS011;7593;49.006;8.372;2023-05-14T05:47:16;5.40;;;4.70;;
14994;SDS011;7593;49.006;8.372;2023-05-14T05:49:43;5.53;;;5.03;;
14994;SDS011;7593;49.006;8.372;2023-05-14T05:52:10;5.20;;;4.65;;
14994;SDS011;7593;49.006;8.372;2023-05-14T05:54:37;5.35;;;4.90;;
14994;SDS011;7593;49.006;8.372;2023-05-14T05:57:06;6.15;;;5.45;;
14994;SDS011;7593;49.006;8.372;2023-05-14T05:59:32;5.25;;;4.65;;
14994;SDS011;7593;49.006;8.372;2023-05-14T06:02:00;5.47;;;4.97;;
14994;SDS011;7593;49.006;8.372;2023-05-14T06:04:27;5.63;;;5.10;;
14994;SDS011;7593;49.006;8.372;2023-05-14T06:06:53;5.18;;;4.72;;
14994;SDS011;7593;49.006;8.372;2023-05-14T06:09:20;5.65;;;5.03;;
14994;SDS011;7593;49.006;8.372;2023-05-14T06:11:47;5.18;;;4.70;;
14994;SDS011;7593;49.006;8.372;2023-05-14T06:14:15;5.75;;;4.70;;
14994;SDS011;7593;49.006;8.372;2023-05-14T06:16:41;5.57;;;5.10;;
14994;SDS011;7593;49.006;8.372;2023-05-14T06:19:08;5.35;;;4.85;;
14994;SDS011;7593;49.006;8.372;2023-05-14T06:21:35;5.45;;;4.95;;
14994;SDS011;7593;49.006;8.372;2023-05-14T06:24:02;5.22;;;4.72;;
14994;SDS011;7593;49.006;8.372;2023-05-14T06:26:29;5.18;;;4.68;;
14994;SDS011;7593;49.006;8.372;2023-05-14T06:28:55;4.18;;;3.88;;
14994;SDS011;7593;49.006;8.372;2023-05-14T06:31:24;4.53;;;4.18;;
14994;SDS011;7593;49.006;8.372;2023-05-14T06:33:51;4.60;;;4.20;;
14994;SDS011;7593;49.006;8.372;2023-05-14T06:36:18;4.75;;;4.22;;
14994;SDS011;7593;49.006;8.372;2023-05-14T06:38:44;5.13;;;4.68;;
14994;SDS011;7593;49.006;8.372;2023-05-14T06:41:11;5.72;;;4.57;;
14994;SDS011;7593;49.006;8.372;2023-05-14T06:43:38;7.03;;;4.97;;
14994;SDS011;7593;49.006;8.372;2023-05-14T06:46:04;4.72;;;4.32;;
14994;SDS011;7593;49.006;8.372;2023-05-14T06:48:32;4.53;;;4.13;;
14994;SDS011;7593;49.006;8.372;2023-05-14T06:51:00;4.90;;;4.50;;
14994;SDS011;7593;49.006;8.372;2023-05-14T06:53:28;4.57;;;4.18;;
14994;SDS011;7593;49.006;8.372;2023-05-14T06:55:55;5.53;;;4.38;;
14994;SDS011;7593;49.006;8.372;2023-05-14T06:58:21;4.15;;;3.75;;
14994;SDS011;7593;49.006;8.372;2023-05-14T07:00:48;4.30;;;3.90;;
14994;SDS011;7593;49.006;8.372;2023-05-14T07:03:15;4.60;;;4.20;;
14994;SDS011;7593;49.006;8.372;2023-05-14T07:05:43;4.55;;;4.15;;
14994;SDS011;7593;49.006;8.372;2023-05-14T07:08:10;4.43;;;4.03;;
14994;SDS011;7593;49.006;8.372;2023-05-14T07:10:37;7.53;;;4.50;;
14994;SDS011;7593;49.006;8.372;2023-05-14T07:13:04;4.13;;;3.80;;
14994;SDS011;7593;49.006;8.372;2023-05-14T07:15:30;4.65;;;4.25;;
14994;SDS011;7593;49.006;8.372;2023-05-14T07:17:57;5.18;;;4.63;;
14994;SDS011;7593;49.006;8.372;2023-05-14T07:20:24;5.00;;;4.60;;
14994;SDS011;7593;49.006;8.372;2023-05-14T07:22:52;4.63;;;4.20;;
14994;SDS011;7593;49.006;8.372;2023-05-14T07:25:20;4.80;;;4.40;;
14994;SDS011;7593;49.006;8.372;2023-05-14T07:27:46;4.88;;;4.32;;
14994;SDS011;7593;49.006;8.372;2023-05-14T07:30:13;4.75;;;4.35;;
14994;SDS011;7593;49.006;8.372;2023-05-14T07:32:40;5.40;;;4.40;;
14994;SDS011;7593;49.006;8.372;2023-05-14T07:35:07;5.22;;;4.63;;
14994;SDS011;7593;49.006;8.372;2023-05-14T07:37:35;5.45;;;4.40;;
14994;SDS011;7593;49.006;8.372;2023-05-14T07:40:04;4.88;;;4.47;;
14994;SDS011;7593;49.006;8.372;2023-05-14T07:42:32;5.03;;;4.35;;
14994;SDS011;7593;49.006;8.372;2023-05-14T07:44:58;4.07;;;3.67;;
14994;SDS011;7593;49.006;8.372;2023-05-14T07:47:25;4.50;;;4.13;;
14994;SDS011;7593;49.006;8.372;2023-05-14T07:49:53;4.65;;;4.25;;
14994;SDS011;7593;49.006;8.372;2023-05-14T07:52:20;4.47;;;4.07;;
14994;SDS011;7593;49.006;8.372;2023-05-14T07:54:47;4.30;;;3.90;;
14994;SDS011;7593;49.006;8.372;2023-05-14T07:57:16;4.32;;;3.92;;
14994;SDS011;7593;49.006;8.372;2023-05-14T07:59:43;4.65;;;4.22;;
14994;SDS011;7593;49.006;8.372;2023-05-14T08:02:10;5.43;;;4.47;;
14994;SDS011;7593;49.006;8.372;2023-05-14T08:04:38;4.93;;;4.50;;
14994;SDS011;7593;49.006;8.372;2023-05-14T08:07:04;4.50;;;4.10;;
14994;SDS011;7593;49.006;8.372;2023-05-14T08:09:32;4.60;;;4.20;;
14994;SDS011;7593;49.006;8.372;2023-05-14T08:11:59;4.35;;;3.95;;
14994;SDS011;7593;49.006;8.372;2023-05-14T08:14:27;4.53;;;3.70;;
14994;SDS011;7593;49.006;8.372;2023-05-14T08:16:54;6.10;;;4.05;;
14994;SDS011;7593;49.006;8.372;2023-05-14T08:19:21;4.80;;;4.10;;
14994;SDS011;7593;49.006;8.372;2023-05-14T08:21:48;4.50;;;4.20;;
14994;SDS011;7593;49.006;8.372;2023-05-14T08:24:15;4.45;;;4.05;;
14994;SDS011;7593;49.006;8.372;2023-05-14T08:26:43;4.20;;;3.90;;
14994;SDS011;7593;49.006;8.372;2023-05-14T08:29:09;5.22;;;3.75;;
14994;SDS011;7593;49.006;8.372;2023-05-14T08:31:37;6.40;;;3.80;;
14994;SDS011;7593;49.006;8.372;2023-05-14T08:34:04;4.00;;;3.70;;
14994;SDS011;7593;49.006;8.372;2023-05-14T08:36:31;3.95;;;3.65;;
14994;SDS011;7593;49.006;8.372;2023-05-14T08:38:58;3.95;;;3.60;;
14994;SDS011;7593;49.006;8.372;2023-05-14T08:41:24;4.65;;;3.67;;
14994;SDS011;7593;49.006;8.372;2023-05-14T08:43:54;4.13;;;3.72;;
14994;SDS011;7593;49.006;8.372;2023-05-14T08:46:30;3.58;;;3.28;;
14994;SDS011;7593;49.006;8.372;2023-05-14T08:49:02;3.67;;;3.30;;
14994;SDS011;7593;49.006;8.372;2023-05-14T08:51:36;3.70;;;3.40;;
14994;SDS011;7593;49.006;8.372;2023-05-14T08:54:03;3.72;;;3.10;;
14994;SDS011;7593;49.006;8.372;2023-05-14T08:56:31;3.30;;;3.03;;
14994;SDS011;7593;49.006;8.372;2023-05-14T08:58:58;3.42;;;3.13;;
14994;SDS011;7593;49.006;8.372;2023-05-14T09:01:25;4.38;;;3.13;;
14994;SDS011;7593;49.006;8.372;2023-05-14T09:03:53;3.70;;;3.40;;
14994;SDS011;7593;49.006;8.372;2023-05-14T09:06:21;3.72;;;3.42;;
14994;SDS011;7593;49.006;8.372;2023-05-14T09:08:50;5.85;;;3.70;;
14994;SDS011;7593;49.006;8.372;2023-05-14T09:11:18;3.47;;;3.08;;
14994;SDS011;7593;49.006;8.372;2023-05-14T09:13:44;5.65;;;3.47;;
14994;SDS011;7593;49.006;8.372;2023-05-14T09:16:11;4.50;;;3.50;;
14994;SDS011;7593;49.006;8.372;2023-05-14T09:18:41;5.05;;;3.35;;
14994;SDS011;7593;49.006;8.372;2023-05-14T09:21:09;5.25;;;3.30;;
14994;SDS011;7593;49.006;8.372;2023-05-14T09:23:39;3.60;;;3.30;;
14994;SDS011;7593;49.006;8.372;2023-05-14T09:26:07;3.53;;;3.22;;
14994;SDS011;7593;49.006;8.372;2023-05-14T09:28:34;3.60;;;3.30;;
14994;SDS011;7593;49.006;8.372;2023-05-14T09:31:01;3.25;;;2.95;;
14994;SDS011;7593;49.006;8.372;2023-05-14T09:33:28;3.58;;;3.28;;
14994;SDS011;7593;49.006;8.372;2023-05-14T09:35:57;3.42;;;3.17;;
14994;SDS011;7593;49.006;8.372;2023-05-14T09:38:26;3.22;;;2.70;;
14994;SDS011;7593;49.006;8.372;2023-05-14T09:40:56;4.53;;;2.95;;
14994;SDS011;7593;49.006;8.372;2023-05-14T09:43:22;2.90;;;2.70;;
14994;SDS011;7593;49.006;8.372;2023-05-14T09:45:50;3.47;;;3.17;;
14994;SDS011;7593;49.006;8.372;2023-05-14T09:48:17;3.58;;;3.28;;
14994;SDS011;7593;49.006;8.372;2023-05-14T09:50:44;3.10;;;2.90;;
14994;SDS011;7593;49.006;8.372;2023-05-14T09:53:12;3.85;;;3.55;;
14994;SDS011;7593;49.006;8.372;2023-05-14T09:55:39;4.07;;;3.72;;
14994;SDS011;7593;49.006;8.372;2023-05-14T09:58:07;3.60;;;3.30;;
14994;SDS011;7593;49.006;8.372;2023-05-14T10:00:34;3.78;;;3.47;;
14994;SDS011;7593;49.006;8.372;2023-05-14T10:03:03;3.80;;;3.50;;
14994;SDS011;7593;49.006;8.372;2023-05-14T10:05:31;3.80;;;3.50;;
14994;SDS011;7593;49.006;8.372;2023-05-14T10:08:02;4.25;;;3.85;;
14994;SDS011;7593;49.006;8.372;2023-05-14T10:10:33;4.03;;;3.70;;
14994;SDS011;7593;49.006;8.372;2023-05-14T10:13:02;3.63;;;3.33;;
14994;SDS011;7593;49.006;8.372;2023-05-14T10:15:36;3.88;;;3.55;;
14994;SDS011;7593;49.006;8.372;2023-05-14T10:18:08;4.40;;;4.00;;
14994;SDS011;7593;49.006;8.372;2023-05-14T10:20:37;4.22;;;3.83;;
14994;SDS011;7593;49.006;8.372;2023-05-14T10:23:06;4.75;;;4.30;;
14994;SDS011;7593;49.006;8.372;2023-05-14T10:25:33;4.88;;;4.03;;
14994;SDS011;7593;49.006;8.372;2023-05-14T10:28:00;4.10;;;3.80;;
14994;SDS011;7593;49.006;8.372;2023-05-14T10:30:28;4.18;;;3.38;;
14994;SDS011;7593;49.006;8.372;2023-05-14T10:33:06;4.15;;;3.80;;
14994;SDS011;7593;49.006;8.372;2023-05-14T10:35:49;3.92;;;3.63;;
14994;SDS011;7593;49.006;8.372;2023-05-14T10:38:21;4.78;;;4.00;;
14994;SDS011;7593;49.006;8.372;2023-05-14T10:40:52;3.80;;;3.50;;
14994;SDS011;7593;49.006;8.372;2023-05-14T10:43:22;5.40;;;4.18;;
14994;SDS011;7593;49.006;8.372;2023-05-14T10:45:51;4.75;;;4.20;;
14994;SDS011;7593;49.006;8.372;2023-05-14T10:48:20;4.47;;;3.92;;
14994;SDS011;7593;49.006;8.372;2023-05-14T10:50:47;4.82;;;4.07;;
14994;SDS011;7593;49.006;8.372;2023-05-14T10:53:15;4.75;;;4.30;;
14994;SDS011;7593;49.006;8.372;2023-05-14T10:55:42;6.10;;;3.80;;
14994;SDS011;7593;49.006;8.372;2023-05-14T10:58:10;3.95;;;3.65;;
14994;SDS011;7593;49.006;8.372;2023-05-14T11:00:37;3.97;;;3.50;;
14994;SDS011;7593;49.006;8.372;2023-05-14T11:03:05;4.18;;;3.78;;
14994;SDS011;7593;49.006;8.372;2023-05-14T11:05:33;3.80;;;3.40;;
14994;SDS011;7593;49.006;8.372;2023-05-14T11:08:03;4.60;;;4.18;;
14994;SDS011;7593;49.006;8.372;2023-05-14T11:10:33;4.20;;;3.80;;
14994;SDS011;7593;49.006;8.372;2023-05-14T11:13:00;4.00;;;3.70;;
14994;SDS011;7593;49.006;8.372;2023-05-14T11:15:27;4.10;;;3.80;;
14994;SDS011;7593;49.006;8.372;2023-05-14T11:17:54;4.07;;;3.47;;
14994;SDS011;7593;49.006;8.372;2023-05-14T11:20:21;5.10;;;3.80;;
14994;SDS011;7593;49.006;8.372;2023-05-14T11:22:49;4.10;;;3.80;;
14994;SDS011;7593;49.006;8.372;2023-05-14T11:25:16;4.10;;;3.70;;
14994;SDS011;7593;49.006;8.372;2023-05-14T11:27:43;3.83;;;3.53;;
14994;SDS011;7593;49.006;8.372;2023-05-14T11:30:12;5.05;;;4.65;;
14994;SDS011;7593;49.006;8.372;2023-05-14T11:32:39;4.13;;;3.30;;
14994;SDS011;7593;49.006;8.372;2023-05-14T11:35:07;6.38;;;3.40;;
14994;SDS011;7593;49.006;8.372;2023-05-14T11:37:34;4.05;;;3.75;;
14994;SDS011;7593;49.006;8.372;2023-05-14T11:40:05;3.50;;;3.20;;
14994;SDS011;7593;49.006;8.372;2023-05-14T11:42:34;3.80;;;3.03;;
14994;SDS011;7593;49.006;8.372;2023-05-14T11:45:03;3.45;;;2.97;;
14994;SDS011;7593;49.006;8.372;2023-05-14T11:47:31;5.00;;;2.83;;
14994;SDS011;7593;49.006;8.372;2023-05-14T11:49:58;4.88;;;3.00;;
14994;SDS011;7593;49.006;8.372;2023-05-14T11:52:25;3.53;;;2.75;;
14994;SDS011;7593;49.006;8.372;2023-05-14T11:54:52;3.33;;;2.78;;
14994;SDS011;7593;49.006;8.372;2023-05-14T11:57:21;3.63;;;3.33;;
14994;SDS011;7593;49.006;8.372;2023-05-14T11:59:48;4.47;;;4.05;;
14994;SDS011;7593;49.006;8.372;2023-05-14T12:02:21;3.50;;;3.03;;
14994;SDS011;7593;49.006;8.372;2023-05-14T12:04:52;3.47;;;3.17;;
14994;SDS011;7593;49.006;8.372;2023-05-14T12:07:19;3.35;;;3.15;;
14994;SDS011;7593;49.006;8.372;2023-05-14T12:09:46;3.88;;;3.22;;
14994;SDS011;7593;49.006;8.372;2023-05-14T12:12:15;3.47;;;3.17;;
14994;SDS011;7593;49.006;8.372;2023-05-14T12:14:44;3.20;;;2.92;;
14994;SDS011;7593;49.006;8.372;2023-05-14T12:17:12;3.83;;;3.33;;
14994;SDS011;7593;49.006;8.372;2023-05-14T12:19:40;3.83;;;3.42;;
14994;SDS011;7593;49.006;8.372;2023-05-14T12:22:08;5.25;;;2.95;;
14994;SDS011;7593;49.006;8.372;2023-05-14T12:24:35;3.20;;;3.00;;
14994;SDS011;7593;49.006;8.372;2023-05-14T12:27:03;3.85;;;3.38;;
14994;SDS011;7593;49.006;8.372;2023-05-14T12:29:33;3.70;;;3.40;;
14994;SDS011;7593;49.006;8.372;2023-05-14T12:32:02;3.85;;;3.47;;
14994;SDS011;7593;49.006;8.372;2023-05-14T12:34:33;5.25;;;3.90;;
14994;SDS011;7593;49.006;8.372;2023-05-14T12:37:00;3.72;;;3.42;;
14994;SDS011;7593;49.006;8.372;2023-05-14T12:39:26;4.35;;;3.55;;
14994;SDS011;7593;49.006;8.372;2023-05-14T12:41:55;4.90;;;4.40;;
14994;SDS011;7593;49.006;8.372;2023-05-14T12:44:22;3.72;;;3.42;;
14994;SDS011;7593;49.006;8.372;2023-05-14T12:46:49;4.50;;;3.55;;
14994;SDS011;7593;49.006;8.372;2023-05-14T12:49:18;4.07;;;3.45;;
14994;SDS011;7593;49.006;8.372;2023-05-14T12:51:44;3.85;;;3.28;;
14994;SDS011;7593;49.006;8.372;2023-05-14T12:54:11;6.97;;;3.20;;
14994;SDS011;7593;49.006;8.372;2023-05-14T12:56:39;3.72;;;3.42;;
14994;SDS011;7593;49.006;8.372;2023-05-14T12:59:06;3.60;;;3.30;;
14994;SDS011;7593;49.006;8.372;2023-05-14T13:01:33;3.55;;;2.80;;
14994;SDS011;7593;49.006;8.372;2023-05-14T13:04:01;3.28;;;2.97;;
14994;SDS011;7593;49.006;8.372;2023-05-14T13:06:29;2.70;;;2.50;;
14994;SDS011;7593;49.006;8.372;2023-05-14T13:08:56;4.18;;;3.05;;
14994;SDS011;7593;49.006;8.372;2023-05-14T13:11:25;2.90;;;2.70;;
14994;SDS011;7593;49.006;8.372;2023-05-14T13:13:54;3.40;;;2.80;;
14994;SDS011;7593;49.006;8.372;2023-05-14T13:16:21;2.70;;;2.50;;
14994;SDS011;7593;49.006;8.372;2023-05-14T13:18:47;3.13;;;2.85;;
14994;SDS011;7593;49.006;8.372;2023-05-14T13:21:14;3.92;;;2.75;;
14994;SDS011;7593;49.006;8.372;2023-05-14T13:23:42;3.50;;;3.20;;
14994;SDS011;7593;49.006;8.372;2023-05-14T13:26:09;3.00;;;2.80;;
14994;SDS011;7593;49.006;8.372;2023-05-14T13:28:36;3.45;;;2.92;;
14994;SDS011;7593;49.006;8.372;2023-05-14T13:31:06;3.35;;;3.10;;
14994;SDS011;7593;49.006;8.372;2023-05-14T13:33:34;3.50;;;3.20;;
14994;SDS011;7593;49.006;8.372;2023-05-14T13:36:02;3.78;;;3.47;;
14994;SDS011;7593;49.006;8.372;2023-05-14T13:38:30;4.05;;;3.25;;
14994;SDS011;7593;49.006;8.372;2023-05-14T13:40:58;4.20;;;3.65;;
14994;SDS011;7593;49.006;8.372;2023-05-14T13:43:27;4.80;;;3.40;;
14994;SDS011;7593;49.006;8.372;2023-05-14T13:45:54;4.90;;;3.50;;
14994;SDS011;7593;49.006;8.372;2023-05-14T13:48:21;6.03;;;5.45;;
14994;SDS011;7593;49.006;8.372;2023-05-14T13:50:48;3.67;;;3.38;;
14994;SDS011;7593;49.006;8.372;2023-05-14T13:53:16;4.47;;;3.20;;
14994;SDS011;7593;49.006;8.372;2023-05-14T13:55:42;3.28;;;2.97;;
14994;SDS011;7593;49.006;8.372;2023-05-14T13:58:11;3.00;;;2.80;;
14994;SDS011;7593;49.006;8.372;2023-05-14T14:00:38;4.40;;;2.70;;
14994;SDS011;7593;49.006;8.372;2023-05-14T14:03:05;3.55;;;2.60;;
14994;SDS011;7593;49.006;8.372;2023-05-14T14:05:33;2.50;;;2.30;;
14994;SDS011;7593;49.006;8.372;2023-05-14T14:08:00;3.13;;;2.85;;
14994;SDS011;7593;49.006;8.372;2023-05-14T14:10:26;2.13;;;1.90;;
14994;SDS011;7593;49.006;8.372;2023-05-14T14:12:53;2.42;;;2.22;;
14994;SDS011;7593;49.006;8.372;2023-05-14T14:15:21;2.45;;;2.25;;
14994;SDS011;7593;49.006;8.372;2023-05-14T14:17:48;2.65;;;2.10;;
14994;SDS011;7593;49.006;8.372;2023-05-14T14:20:15;2.30;;;2.15;;
14994;SDS011;7593;49.006;8.372;2023-05-14T14:22:42;2.38;;;2.17;;
14994;SDS011;7593;49.006;8.372;2023-05-14T14:25:09;2.33;;;2.10;;
14994;SDS011;7593;49.006;8.372;2023-05-14T14:27:36;2.25;;;1.92;;
14994;SDS011;7593;49.006;8.372;2023-05-14T14:30:04;4.28;;;2.10;;
14994;SDS011;7593;49.006;8.372;2023-05-14T14:32:33;1.92;;;1.75;;
14994;SDS011;7593;49.006;8.372;2023-05-14T14:35:00;4.22;;;2.42;;
14994;SDS011;7593;49.006;8.372;2023-05-14T14:37:27;2.88;;;2.60;;
14994;SDS011;7593;49.006;8.372;2023-05-14T14:39:53;2.05;;;1.95;;
14994;SDS011;7593;49.006;8.372;2023-05-14T14:42:20;2.30;;;2.03;;
14994;SDS011;7593;49.006;8.372;2023-05-14T14:44:47;2.53;;;2.28;;
14994;SDS011;7593;49.006;8.372;2023-05-14T14:47:14;2.50;;;2.20;;
14994;SDS011;7593;49.006;8.372;2023-05-14T14:49:42;3.63;;;2.58;;
14994;SDS011;7593;49.006;8.372;2023-05-14T14:52:09;3.00;;;2.70;;
14994;SDS011;7593;49.006;8.372;2023-05-14T14:54:35;2.50;;;2.30;;
14994;SDS011;7593;49.006;8.372;2023-05-14T14:57:02;2.83;;;2.53;;
14994;SDS011;7593;49.006;8.372;2023-05-14T14:59:29;2.95;;;2.33;;
14994;SDS011;7593;49.006;8.372;2023-05-14T15:01:56;2.97;;;2.70;;